Time;durP1;ratioP1;P1;durP2;ratioP2;P2;SDS_P1;SDS_P2;PMS_P1;PMS_P2;Temp;Humidity;BMP_temperature;BMP_pressure;BME280_temperature;BME280_humidity;BME280_pressure;Samples;Min_cycle;Max_cycle;Signal;HPM_P1;HPM_P2
2021/05/23 00:02:28;;;;;;;8.77;3.13;;;8.00;95.80;;;;;;5149243;27;20071;-58
2021/05/23 00:05:00;;;;;;;11.20;2.72;;;7.90;95.90;;;;;;5148518;27;20091;-57
2021/05/23 00:07:29;;;;;;;12.05;3.22;;;7.90;96.20;;;;;;5148180;27;20042;-56
2021/05/23 00:09:56;;;;;;;10.82;3.20;;;7.80;96.20;;;;;;5149028;27;20137;-54
2021/05/23 00:12:28;;;;;;;8.20;3.63;;;7.80;96.10;;;;;;5146793;27;20074;-57
2021/05/23 00:14:58;;;;;;;9.68;2.95;;;7.80;96.30;;;;;;5148771;27;20042;-55
2021/05/23 00:17:27;;;;;;;9.02;3.25;;;7.70;96.80;;;;;;5147568;27;20506;-56
2021/05/23 00:19:54;;;;;;;8.27;2.95;;;7.60;96.60;;;;;;5148108;27;20050;-59
2021/05/23 00:22:21;;;;;;;10.60;2.80;;;7.60;96.60;;;;;;5145568;27;20130;-60
2021/05/23 00:24:51;;;;;;;7.40;2.90;;;7.60;96.80;;;;;;5147812;27;20365;-57
2021/05/23 00:27:20;;;;;;;11.77;3.55;;;7.50;96.90;;;;;;5141430;27;20579;-57
2021/05/23 00:29:52;;;;;;;10.02;3.25;;;7.50;97.30;;;;;;5135728;27;20133;-59
2021/05/23 00:32:22;;;;;;;8.75;3.33;;;7.40;97.20;;;;;;5150075;27;20157;-58
2021/05/23 00:34:54;;;;;;;10.80;3.33;;;7.40;97.00;;;;;;5132575;27;20093;-58
2021/05/23 00:37:26;;;;;;;11.93;3.30;;;7.30;97.20;;;;;;5142503;27;20059;-56
2021/05/23 00:39:55;;;;;;;11.98;3.80;;;7.30;97.40;;;;;;5147266;27;20050;-58
2021/05/23 00:42:30;;;;;;;9.13;3.15;;;7.20;97.50;;;;;;5153317;27;20057;-55
2021/05/23 00:44:56;;;;;;;14.10;3.72;;;7.20;97.30;;;;;;5141199;27;20069;-54
2021/05/23 00:47:26;;;;;;;9.35;3.38;;;7.10;97.80;;;;;;5152403;27;20074;-55
2021/05/23 00:49:58;;;;;;;11.35;3.50;;;7.00;97.60;;;;;;5140955;27;20053;-57
2021/05/23 00:52:30;;;;;;;11.35;4.45;;;7.00;97.80;;;;;;5143974;27;20050;-56
2021/05/23 00:54:59;;;;;;;10.07;3.80;;;6.90;98.00;;;;;;5156921;27;20077;-60
2021/05/23 00:57:29;;;;;;;13.63;3.63;;;6.90;97.90;;;;;;5152094;27;20035;-58
2021/05/23 00:59:56;;;;;;;13.65;5.13;;;6.80;97.90;;;;;;5154128;27;20054;-55
2021/05/23 01:02:49;;;;;;;10.18;3.72;;;6.80;98.30;;;;;;5152353;27;20046;-55
2021/05/23 01:05:25;;;;;;;8.93;4.45;;;6.70;98.20;;;;;;5139099;27;20034;-59
2021/05/23 01:07:55;;;;;;;12.45;4.35;;;6.70;98.50;;;;;;5152155;27;20077;-57
2021/05/23 01:10:27;;;;;;;15.48;4.95;;;6.70;98.50;;;;;;5153933;27;20070;-63
2021/05/23 01:12:53;;;;;;;10.13;4.88;;;6.70;98.60;;;;;;5152670;27;20039;-56
2021/05/23 01:15:32;;;;;;;10.63;4.13;;;6.70;98.50;;;;;;5150403;27;20042;-59
2021/05/23 01:18:02;;;;;;;13.05;4.28;;;6.60;98.70;;;;;;5152158;27;20042;-58
2021/05/23 01:20:55;;;;;;;9.57;4.40;;;6.60;98.80;;;;;;5151774;27;20065;-61
2021/05/23 01:23:27;;;;;;;13.25;4.78;;;6.60;98.90;;;;;;5157141;27;20051;-59
2021/05/23 01:26:13;;;;;;;15.93;5.30;;;6.50;98.70;;;;;;5158796;27;20125;-59
2021/05/23 01:28:48;;;;;;;14.60;4.68;;;6.50;98.90;;;;;;5142407;27;20504;-58
2021/05/23 01:31:20;;;;;;;15.80;4.93;;;6.40;99.00;;;;;;5135203;27;20051;-54
2021/05/23 01:33:55;;;;;;;13.10;5.20;;;6.40;98.70;;;;;;5152342;27;20053;-58
2021/05/23 01:36:32;;;;;;;14.57;5.45;;;6.30;99.00;;;;;;5151820;27;20231;-58
2021/05/23 01:39:00;;;;;;;9.95;4.43;;;6.30;99.10;;;;;;5153042;27;20039;-57
2021/05/23 01:41:30;;;;;;;14.98;5.20;;;6.20;99.30;;;;;;5152011;27;20049;-55
2021/05/23 01:43:58;;;;;;;10.27;4.50;;;6.10;99.10;;;;;;5159840;27;20042;-59
2021/05/23 01:46:26;;;;;;;13.05;5.20;;;6.10;99.00;;;;;;5151546;27;20043;-56
2021/05/23 01:48:58;;;;;;;13.70;5.32;;;6.10;99.30;;;;;;5151784;27;20502;-55
2021/05/23 01:51:27;;;;;;;17.23;5.38;;;6.10;99.60;;;;;;5144493;27;20082;-58
2021/05/23 01:53:56;;;;;;;11.63;4.85;;;6.10;99.60;;;;;;5152110;27;20058;-56
2021/05/23 01:56:25;;;;;;;15.98;6.20;;;6.10;99.40;;;;;;5151583;27;20055;-57
2021/05/23 01:58:52;;;;;;;12.98;5.40;;;6.10;99.80;;;;;;5151335;27;20053;-58
2021/05/23 02:01:22;;;;;;;9.63;4.50;;;6.10;99.70;;;;;;5151746;27;20626;-57
2021/05/23 02:03:49;;;;;;;15.40;5.70;;;6.10;99.90;;;;;;5150347;27;20047;-58
2021/05/23 02:06:21;;;;;;;16.98;5.53;;;6.20;99.90;;;;;;5152840;27;20047;-56
2021/05/23 02:08:47;;;;;;;12.18;5.55;;;6.20;99.80;;;;;;5151320;27;20066;-59
2021/05/23 02:11:20;;;;;;;16.13;5.15;;;6.20;99.90;;;;;;5159435;27;20034;-58
2021/05/23 02:13:58;;;;;;;13.23;4.47;;;6.20;99.90;;;;;;5152845;27;20625;-58
2021/05/23 02:16:31;;;;;;;10.25;4.32;;;6.10;99.80;;;;;;5153040;27;20035;-58
2021/05/23 02:19:01;;;;;;;11.52;5.05;;;6.10;99.80;;;;;;5151423;27;20410;-59
2021/05/23 02:21:31;;;;;;;14.13;5.07;;;6.10;99.70;;;;;;5156397;27;20042;-60
2021/05/23 02:24:00;;;;;;;18.77;5.18;;;6.00;99.90;;;;;;5151488;27;20070;-58
2021/05/23 02:26:29;;;;;;;10.07;5.15;;;6.00;99.80;;;;;;5151486;27;20042;-58
2021/05/23 02:28:58;;;;;;;9.35;4.97;;;6.00;99.80;;;;;;5150482;27;20039;-59
2021/05/23 02:31:30;;;;;;;13.32;5.50;;;6.00;99.70;;;;;;5150780;27;20045;-58
2021/05/23 02:34:00;;;;;;;13.70;6.57;;;6.00;99.90;;;;;;5150905;27;20049;-56
2021/05/23 02:36:32;;;;;;;11.38;4.85;;;6.00;99.90;;;;;;5150799;27;20039;-57
2021/05/23 02:39:02;;;;;;;13.50;5.55;;;6.00;99.90;;;;;;5158507;27;20074;-59
2021/05/23 02:41:32;;;;;;;11.88;4.55;;;6.00;99.90;;;;;;5150980;27;20049;-54
2021/05/23 02:43:59;;;;;;;13.55;5.18;;;5.90;99.90;;;;;;5149529;27;20145;-59
2021/05/23 02:46:29;;;;;;;12.70;5.40;;;6.00;99.90;;;;;;5150651;27;20046;-58
2021/05/23 02:49:00;;;;;;;15.07;6.30;;;6.00;99.90;;;;;;5150291;27;20045;-54
2021/05/23 02:51:37;;;;;;;10.50;5.35;;;6.00;99.90;;;;;;5151038;27;20069;-58
2021/05/23 02:54:04;;;;;;;14.52;5.70;;;5.90;99.90;;;;;;5151303;27;20051;-58
2021/05/23 02:56:30;;;;;;;12.15;6.22;;;5.90;99.90;;;;;;5144101;27;20050;-58
2021/05/23 02:59:02;;;;;;;17.00;5.82;;;5.90;99.90;;;;;;5153093;27;20042;-58
2021/05/23 03:01:32;;;;;;;13.15;6.05;;;5.90;99.90;;;;;;5150874;27;20054;-58
2021/05/23 03:04:13;;;;;;;12.45;5.28;;;5.90;99.90;;;;;;5151059;27;20066;-54
2021/05/23 03:06:47;;;;;;;11.70;6.03;;;5.90;99.90;;;;;;5157954;27;20125;-55
2021/05/23 03:09:16;;;;;;;13.95;5.82;;;5.90;99.90;;;;;;5151018;27;20120;-59
2021/05/23 03:11:43;;;;;;;12.65;5.70;;;5.80;99.90;;;;;;5150773;27;20046;-56
2021/05/23 03:14:19;;;;;;;12.73;5.50;;;5.80;99.90;;;;;;5149576;27;20051;-58
2021/05/23 03:16:51;;;;;;;14.75;6.10;;;5.80;99.90;;;;;;5150063;27;20054;-59
2021/05/23 03:19:24;;;;;;;18.67;6.60;;;5.80;99.90;;;;;;5150882;27;20039;-55
2021/05/23 03:21:54;;;;;;;15.05;6.05;;;5.80;99.90;;;;;;5150739;27;20057;-58
2021/05/23 03:24:23;;;;;;;12.25;6.32;;;5.80;99.90;;;;;;5150063;27;20046;-59
2021/05/23 03:26:56;;;;;;;15.02;6.28;;;5.80;99.90;;;;;;5149850;27;20061;-58
2021/05/23 03:29:22;;;;;;;14.98;6.25;;;5.80;99.90;;;;;;5150364;27;20058;-57
2021/05/23 03:31:53;;;;;;;19.67;7.30;;;5.80;99.90;;;;;;5150273;27;20069;-56
2021/05/23 03:34:26;;;;;;;12.60;5.40;;;5.80;99.90;;;;;;5150399;27;20462;-56
2021/05/23 03:36:52;;;;;;;15.18;6.78;;;5.80;99.90;;;;;;5149489;27;20110;-58
2021/05/23 03:39:22;;;;;;;16.63;6.45;;;5.90;99.90;;;;;;5150462;27;20050;-58
2021/05/23 03:41:51;;;;;;;15.13;7.20;;;5.90;99.90;;;;;;5149664;27;20051;-59
2021/05/23 03:44:18;;;;;;;14.00;6.95;;;5.90;99.90;;;;;;5150430;27;20054;-57
2021/05/23 03:46:52;;;;;;;15.13;6.40;;;6.00;99.90;;;;;;5156044;27;20051;-58
2021/05/23 03:49:21;;;;;;;11.85;5.97;;;5.90;99.90;;;;;;5129883;27;20135;-58
2021/05/23 03:51:50;;;;;;;15.32;6.95;;;6.00;99.90;;;;;;5145423;27;20183;-57
2021/05/23 03:54:23;;;;;;;14.15;7.43;;;6.10;99.90;;;;;;5152060;27;20039;-55
2021/05/23 03:56:54;;;;;;;20.55;6.40;;;6.10;99.90;;;;;;5148799;27;20047;-61
2021/05/23 03:59:23;;;;;;;16.42;6.57;;;6.20;99.90;;;;;;5148914;27;20103;-59
2021/05/23 04:01:53;;;;;;;16.70;6.78;;;6.30;99.90;;;;;;5149306;27;20095;-59
2021/05/23 04:04:23;;;;;;;14.68;7.03;;;6.40;99.90;;;;;;5149541;27;20050;-58
2021/05/23 04:06:52;;;;;;;17.95;7.22;;;6.40;99.90;;;;;;5149206;27;20067;-59
2021/05/23 04:09:21;;;;;;;15.70;6.75;;;6.40;99.90;;;;;;5148792;27;20133;-58
2021/05/23 04:11:57;;;;;;;12.15;6.20;;;6.50;99.90;;;;;;5110851;28;20102;-59
2021/05/23 04:14:29;;;;;;;17.98;6.75;;;6.50;99.90;;;;;;5154980;27;20130;-58
2021/05/23 04:17:00;;;;;;;14.95;6.60;;;6.60;99.90;;;;;;5149399;27;20057;-59
2021/05/23 04:19:29;;;;;;;9.00;6.55;;;6.70;99.90;;;;;;5148948;27;20050;-58
2021/05/23 04:21:59;;;;;;;;;;;6.80;99.90;;;;;;5149434;27;20137;-59
2021/05/23 04:24:30;;;;;;;11.13;6.28;;;6.90;99.90;;;;;;5131773;27;19919;-58
2021/05/23 04:26:59;;;;;;;10.95;5.88;;;7.00;99.90;;;;;;5134249;27;20038;-58
2021/05/23 04:29:37;;;;;;;10.48;6.00;;;7.10;99.90;;;;;;5149515;27;20055;-57
2021/05/23 04:32:07;;;;;;;11.70;5.95;;;7.10;99.90;;;;;;5131032;27;20050;-58
2021/05/23 04:34:36;;;;;;;10.68;5.95;;;7.10;99.90;;;;;;5148807;27;20054;-60
2021/05/23 04:37:06;;;;;;;13.73;6.20;;;7.20;99.90;;;;;;5149145;27;20043;-56
2021/05/23 04:39:33;;;;;;;13.73;6.35;;;7.20;99.90;;;;;;5146590;27;20031;-58
2021/05/23 04:42:02;;;;;;;11.80;5.85;;;7.20;99.90;;;;;;5151081;27;20043;-60
2021/05/23 04:44:31;;;;;;;13.20;6.30;;;7.20;99.90;;;;;;5156241;27;20047;-59
2021/05/23 04:46:58;;;;;;;10.02;5.78;;;7.20;99.90;;;;;;5148763;27;20583;-59
2021/05/23 04:49:30;;;;;;;12.77;6.15;;;7.30;99.90;;;;;;5126158;27;20055;-59
2021/05/23 04:51:56;;;;;;;13.77;7.13;;;7.30;99.90;;;;;;5148886;27;20122;-59
2021/05/23 04:54:29;;;;;;;14.25;6.97;;;7.40;99.90;;;;;;5148455;27;20588;-58
2021/05/23 04:56:55;;;;;;;13.80;6.75;;;7.50;99.90;;;;;;5131965;27;20060;-59
2021/05/23 04:59:23;;;;;;;15.48;7.88;;;7.70;99.90;;;;;;5149519;27;20062;-59
2021/05/23 05:01:52;;;;;;;12.45;7.43;;;7.80;99.90;;;;;;5151293;27;20042;-58
2021/05/23 05:04:20;;;;;;;13.07;7.70;;;7.90;99.90;;;;;;5149254;27;20046;-59
2021/05/23 05:06:47;;;;;;;14.05;7.50;;;8.00;99.90;;;;;;5149293;27;20046;-59
2021/05/23 05:09:19;;;;;;;21.85;8.65;;;7.90;99.80;;;;;;5135711;27;20043;-60
2021/05/23 05:11:48;;;;;;;15.65;8.02;;;7.90;99.70;;;;;;5149180;27;20043;-59
2021/05/23 05:14:21;;;;;;;12.88;8.98;;;7.90;99.70;;;;;;5151804;27;20042;-58
2021/05/23 05:16:50;;;;;;;18.33;9.45;;;8.00;99.80;;;;;;5152475;27;20050;-59
2021/05/23 05:19:20;;;;;;;16.23;9.55;;;8.20;99.90;;;;;;5157340;27;20045;-59
2021/05/23 05:21:46;;;;;;;17.10;9.05;;;8.60;99.90;;;;;;5152367;27;20130;-57
2021/05/23 05:24:15;;;;;;;12.63;7.85;;;8.90;99.60;;;;;;5144018;27;20103;-56
2021/05/23 05:26:47;;;;;;;18.58;9.45;;;9.40;99.10;;;;;;5150958;27;20409;-59
2021/05/23 05:29:22;;;;;;;16.58;7.85;;;9.70;97.70;;;;;;5150660;27;20042;-51
2021/05/23 05:31:51;;;;;;;15.32;8.23;;;10.20;97.20;;;;;;5151400;27;20031;-50
2021/05/23 05:34:20;;;;;;;15.45;7.60;;;10.60;96.80;;;;;;5148167;27;20573;-51
2021/05/23 05:36:52;;;;;;;18.88;7.78;;;10.90;96.30;;;;;;5149732;27;20695;-55
2021/05/23 05:39:23;;;;;;;13.07;8.20;;;11.20;95.90;;;;;;5148973;27;20047;-51
2021/05/23 05:41:50;;;;;;;15.88;6.75;;;11.10;94.90;;;;;;5150302;27;20080;-50
2021/05/23 05:44:27;;;;;;;15.50;7.35;;;11.20;95.50;;;;;;5149353;27;20090;-55
2021/05/23 05:46:54;;;;;;;16.88;8.40;;;11.20;95.50;;;;;;5149335;27;20043;-53
2021/05/23 05:49:29;;;;;;;13.50;7.00;;;11.20;95.80;;;;;;5150918;27;20083;-54
2021/05/23 05:51:58;;;;;;;13.60;7.72;;;11.00;95.70;;;;;;5154128;27;20043;-51
2021/05/23 05:54:32;;;;;;;16.25;7.95;;;10.80;95.70;;;;;;5150061;27;20603;-53
2021/05/23 05:57:06;;;;;;;17.92;8.52;;;10.70;95.90;;;;;;5150340;27;20043;-51
2021/05/23 05:59:33;;;;;;;14.85;7.72;;;10.70;95.80;;;;;;5149720;27;20072;-54
2021/05/23 06:02:02;;;;;;;15.73;6.78;;;10.50;95.60;;;;;;5155602;27;20091;-55
2021/05/23 06:04:34;;;;;;;18.83;7.68;;;10.40;96.00;;;;;;5138676;27;20089;-54
2021/05/23 06:07:04;;;;;;;15.70;7.50;;;10.30;96.40;;;;;;5149574;27;20070;-55
2021/05/23 06:09:37;;;;;;;12.80;8.18;;;10.20;96.40;;;;;;5149706;27;20513;-57
2021/05/23 06:12:04;;;;;;;14.73;7.38;;;10.30;96.40;;;;;;5149529;27;20126;-55
2021/05/23 06:14:43;;;;;;;20.90;8.57;;;10.50;96.40;;;;;;5153586;27;20451;-55
2021/05/23 06:17:10;;;;;;;14.60;7.28;;;10.80;96.40;;;;;;5149338;27;20399;-57
2021/05/23 06:19:40;;;;;;;14.65;7.10;;;11.50;96.10;;;;;;5155481;27;20121;-58
2021/05/23 06:22:15;;;;;;;15.25;7.05;;;11.80;95.00;;;;;;5149540;27;20046;-57
2021/05/23 06:24:44;;;;;;;20.95;7.05;;;12.00;95.00;;;;;;5150576;27;20050;-57
2021/05/23 06:27:13;;;;;;;19.65;6.63;;;11.80;94.60;;;;;;5149728;27;20066;-56
2021/05/23 06:29:43;;;;;;;12.43;6.32;;;11.70;94.20;;;;;;5152449;27;20126;-57
2021/05/23 06:32:17;;;;;;;15.57;7.18;;;11.50;94.20;;;;;;5149866;27;20506;-59
2021/05/23 06:34:51;;;;;;;13.50;6.10;;;11.50;93.90;;;;;;5139328;27;20070;-59
2021/05/23 06:37:20;;;;;;;21.83;7.50;;;11.50;94.00;;;;;;5161636;27;20124;-58
2021/05/23 06:39:49;;;;;;;20.27;7.40;;;11.70;94.40;;;;;;5153154;27;20046;-58
2021/05/23 06:42:18;;;;;;;12.93;6.75;;;11.80;94.20;;;;;;5148990;27;20046;-57
2021/05/23 06:44:47;;;;;;;18.70;6.88;;;12.50;94.20;;;;;;5152213;27;20062;-58
2021/05/23 06:47:19;;;;;;;14.85;6.65;;;12.60;92.30;;;;;;5155559;27;20133;-59
2021/05/23 06:49:47;;;;;;;12.68;6.18;;;12.70;92.70;;;;;;5149424;27;20072;-57
2021/05/23 06:52:17;;;;;;;15.40;7.60;;;12.70;92.50;;;;;;5146679;27;20087;-58
2021/05/23 06:54:48;;;;;;;15.93;7.07;;;12.70;92.70;;;;;;5150272;27;20046;-57
2021/05/23 06:57:15;;;;;;;12.88;6.55;;;12.90;92.80;;;;;;5151888;27;20088;-58
2021/05/23 06:59:44;;;;;;;16.25;7.20;;;13.10;91.90;;;;;;5152645;27;20059;-60
2021/05/23 07:02:16;;;;;;;14.15;8.00;;;13.70;91.70;;;;;;5156920;27;20510;-57
2021/05/23 07:04:43;;;;;;;13.32;6.55;;;14.10;90.00;;;;;;5161857;27;20042;-57
2021/05/23 07:07:12;;;;;;;14.32;6.30;;;14.40;87.50;;;;;;5157078;27;20071;-58
2021/05/23 07:09:43;;;;;;;11.23;6.13;;;14.40;86.60;;;;;;5156019;27;20038;-57
2021/05/23 07:12:16;;;;;;;11.75;5.80;;;14.30;84.20;;;;;;5150859;27;20038;-58
2021/05/23 07:14:45;;;;;;;14.10;5.40;;;14.00;82.80;;;;;;5149722;27;20051;-58
2021/05/23 07:17:16;;;;;;;12.10;4.47;;;13.80;84.10;;;;;;5149687;27;20153;-58
2021/05/23 07:19:46;;;;;;;;;;;13.60;84.60;;;;;;5147930;27;20042;-56
2021/05/23 07:22:15;;;;;;;10.60;6.72;;;13.20;78.90;;;;;;5149607;27;19923;-48
2021/05/23 07:24:44;;;;;;;29.95;23.27;;;13.10;85.80;;;;;;5149213;27;20089;-47
2021/05/23 07:27:14;;;;;;;77.32;66.93;;;12.80;85.10;;;;;;5146148;27;20039;-55
2021/05/23 07:29:40;;;;;;;55.58;49.58;;;12.60;83.80;;;;;;5153209;27;20352;-52
2021/05/23 07:32:09;;;;;;;8.55;5.53;;;12.50;84.20;;;;;;5151524;27;20062;-56
2021/05/23 07:34:43;;;;;;;18.83;14.15;;;12.50;85.30;;;;;;5151733;27;20494;-55
2021/05/23 07:37:15;;;;;;;;;;;12.60;87.40;;;;;;5129570;27;20038;-54
2021/05/23 07:39:44;;;;;;;12.00;5.68;;;12.80;87.70;;;;;;5149755;27;19927;-54
2021/05/23 07:42:11;;;;;;;12.20;5.63;;;13.00;89.20;;;;;;5150328;27;20053;-48
2021/05/23 07:44:43;;;;;;;9.70;5.35;;;13.00;87.50;;;;;;5149183;27;20085;-51
2021/05/23 07:47:09;;;;;;;9.13;5.32;;;12.80;85.00;;;;;;5148822;27;20043;-49
2021/05/23 07:49:40;;;;;;;9.55;6.13;;;12.70;86.80;;;;;;5154027;27;20048;-49
2021/05/23 07:52:12;;;;;;;8.60;5.47;;;12.60;88.10;;;;;;5149668;27;20084;-49
2021/05/23 07:54:40;;;;;;;12.23;6.47;;;12.70;88.90;;;;;;5149485;27;20046;-51
2021/05/23 07:57:07;;;;;;;12.60;6.38;;;12.50;88.40;;;;;;5147822;27;20054;-48
2021/05/23 07:59:35;;;;;;;11.32;6.28;;;12.60;89.00;;;;;;5149732;27;20462;-54
2021/05/23 08:02:01;;;;;;;16.05;11.30;;;12.60;89.60;;;;;;5149883;27;20046;-55
2021/05/23 08:04:27;;;;;;;17.55;12.82;;;12.60;89.50;;;;;;5148013;27;20046;-52
2021/05/23 08:06:56;;;;;;;14.98;9.35;;;12.70;90.10;;;;;;5145982;27;20446;-53
2021/05/23 08:09:28;;;;;;;18.65;13.63;;;12.80;90.30;;;;;;5147907;27;20043;-52
2021/05/23 08:11:56;;;;;;;14.55;10.02;;;12.80;90.30;;;;;;5146265;27;20199;-51
2021/05/23 08:14:23;;;;;;;16.98;13.73;;;12.70;91.00;;;;;;5151874;27;20039;-54
2021/05/23 08:16:54;;;;;;;27.73;23.90;;;12.70;91.00;;;;;;5151712;27;20697;-53
2021/05/23 08:19:23;;;;;;;13.98;10.45;;;12.70;91.30;;;;;;5148809;27;20046;-50
2021/05/23 08:21:50;;;;;;;12.57;10.95;;;12.80;91.70;;;;;;5127602;27;20046;-50
2021/05/23 08:24:16;;;;;;;16.48;14.73;;;12.90;91.70;;;;;;5147269;27;20042;-54
2021/05/23 08:26:47;;;;;;;38.00;29.40;;;13.00;91.60;;;;;;5152996;27;20042;-54
2021/05/23 08:29:19;;;;;;;18.17;15.68;;;13.20;91.80;;;;;;5132386;27;20425;-54
2021/05/23 08:31:45;;;;;;;17.45;14.10;;;13.40;91.50;;;;;;5130502;27;20125;-55
2021/05/23 08:34:11;;;;;;;20.17;17.30;;;13.40;91.10;;;;;;5154112;27;20054;-55
2021/05/23 08:36:44;;;;;;;10.93;9.82;;;13.30;91.30;;;;;;5148826;27;20455;-53
2021/05/23 08:39:16;;;;;;;12.10;8.93;;;13.60;91.10;;;;;;5148375;27;20046;-51
2021/05/23 08:41:46;;;;;;;12.77;9.38;;;13.70;91.30;;;;;;5149055;27;20042;-54
2021/05/23 08:44:20;;;;;;;17.58;15.70;;;13.90;90.90;;;;;;5146663;27;20066;-53
2021/05/23 08:46:49;;;;;;;11.05;9.88;;;13.80;90.50;;;;;;5149885;27;20092;-54
2021/05/23 08:49:21;;;;;;;18.42;12.18;;;13.70;90.80;;;;;;5152288;27;20504;-53
2021/05/23 08:51:51;;;;;;;17.13;12.65;;;13.70;90.70;;;;;;5140461;27;20050;-52
2021/05/23 08:54:21;;;;;;;20.00;15.68;;;13.70;90.80;;;;;;5156523;27;20149;-55
2021/05/23 08:56:52;;;;;;;13.90;11.77;;;13.80;91.00;;;;;;5153990;27;20175;-53
2021/05/23 08:59:19;;;;;;;11.40;9.48;;;13.80;91.20;;;;;;5152780;27;20049;-54
2021/05/23 09:01:45;;;;;;;12.55;9.95;;;14.00;91.40;;;;;;5153689;27;20068;-54
2021/05/23 09:04:19;;;;;;;14.05;12.45;;;14.00;91.10;;;;;;5152881;27;20371;-55
2021/05/23 09:06:47;;;;;;;14.00;12.13;;;13.90;90.70;;;;;;5152899;27;20053;-57
2021/05/23 09:09:16;;;;;;;14.52;12.93;;;13.80;91.10;;;;;;5154600;27;20051;-57
2021/05/23 09:11:53;;;;;;;13.65;12.25;;;13.70;90.50;;;;;;5159897;27;20039;-57
2021/05/23 09:14:33;;;;;;;16.10;12.90;;;13.50;91.10;;;;;;5152598;27;20126;-57
2021/05/23 09:16:59;;;;;;;14.80;12.93;;;13.30;91.40;;;;;;5152317;27;20187;-57
2021/05/23 09:19:26;;;;;;;15.23;13.60;;;13.30;91.70;;;;;;5152549;27;20054;-56
2021/05/23 09:21:54;;;;;;;14.43;12.48;;;13.10;91.80;;;;;;5151976;27;20508;-56
2021/05/23 09:24:22;;;;;;;14.00;10.38;;;12.90;91.90;;;;;;5151379;27;20070;-52
2021/05/23 09:26:51;;;;;;;11.30;9.65;;;12.60;93.40;;;;;;5154650;27;20060;-48
2021/05/23 09:29:21;;;;;;;15.77;12.70;;;12.30;94.40;;;;;;5141431;27;20100;-48
2021/05/23 09:31:58;;;;;;;14.55;11.75;;;12.30;95.80;;;;;;5131869;27;20074;-46
2021/05/23 09:34:30;;;;;;;21.70;18.88;;;12.50;96.70;;;;;;5131643;27;20170;-48
2021/05/23 09:36:59;;;;;;;11.15;8.90;;;13.30;96.10;;;;;;5147377;27;20055;-48
2021/05/23 09:39:37;;;;;;;9.48;8.48;;;13.70;95.80;;;;;;5151768;27;20115;-46
2021/05/23 09:42:13;;;;;;;14.05;12.00;;;14.10;95.20;;;;;;5152637;27;20054;-48
2021/05/23 09:44:41;;;;;;;13.57;11.93;;;14.30;93.90;;;;;;5152890;27;20054;-51
2021/05/23 09:47:10;;;;;;;14.70;13.13;;;14.60;94.00;;;;;;5151852;27;20137;-48
2021/05/23 09:49:42;;;;;;;15.50;13.98;;;14.70;92.90;;;;;;5154950;27;20038;-47
2021/05/23 09:52:29;;;;;;;13.05;11.75;;;14.50;93.10;;;;;;5152251;27;20157;-53
2021/05/23 09:54:59;;;;;;;13.85;12.38;;;14.40;93.10;;;;;;5156827;27;20433;-47
2021/05/23 09:57:26;;;;;;;13.43;12.05;;;14.20;93.40;;;;;;5160124;27;20039;-49
2021/05/23 10:00:12;;;;;;;13.20;11.85;;;14.20;93.00;;;;;;5151949;27;20042;-49
2021/05/23 10:02:54;;;;;;;22.20;19.10;;;14.60;93.30;;;;;;5151985;27;20050;-52
2021/05/23 10:05:24;;;;;;;12.50;11.20;;;15.10;93.00;;;;;;5151997;27;20039;-48
2021/05/23 10:07:50;;;;;;;11.52;10.43;;;15.30;91.40;;;;;;5133702;27;20047;-48
2021/05/23 10:10:18;;;;;;;7.07;5.95;;;15.90;90.60;;;;;;5133773;27;20050;-48
2021/05/23 10:12:44;;;;;;;5.93;5.40;;;16.40;87.00;;;;;;5152852;27;20448;-52
2021/05/23 10:15:14;;;;;;;9.85;8.25;;;16.70;87.30;;;;;;5152214;27;20049;-50
2021/05/23 10:17:44;;;;;;;6.30;5.70;;;16.50;88.80;;;;;;5151993;27;20095;-51
2021/05/23 10:20:13;;;;;;;5.28;4.75;;;15.80;85.90;;;;;;5149930;27;20153;-52
2021/05/23 10:22:40;;;;;;;6.63;4.78;;;15.30;86.60;;;;;;5151916;27;20046;-50
2021/05/23 10:25:16;;;;;;;5.00;4.03;;;15.10;88.00;;;;;;5156304;27;20038;-49
2021/05/23 10:27:50;;;;;;;5.05;3.70;;;15.00;85.70;;;;;;5151999;27;20049;-53
2021/05/23 10:30:19;;;;;;;4.45;3.35;;;15.30;87.70;;;;;;5146577;27;20057;-57
2021/05/23 10:32:49;;;;;;;2.15;1.30;;;15.50;83.20;;;;;;5150485;27;20038;-54
2021/05/23 10:35:32;;;;;;;1.10;0.80;;;15.00;78.50;;;;;;5151302;27;20498;-50
2021/05/23 10:38:10;;;;;;;2.05;0.80;;;14.30;82.60;;;;;;5150710;27;20047;-53
2021/05/23 10:40:37;;;;;;;0.63;0.60;;;13.40;82.70;;;;;;5151342;27;20183;-53
2021/05/23 10:43:06;;;;;;;1.38;1.00;;;12.70;84.40;;;;;;5152216;27;20043;-49
2021/05/23 10:45:38;;;;;;;1.65;1.00;;;12.70;86.60;;;;;;5150709;27;20039;-53
2021/05/23 10:48:17;;;;;;;2.35;1.02;;;12.80;89.20;;;;;;5152149;27;20042;-51
2021/05/23 10:50:47;;;;;;;1.10;1.00;;;13.20;87.70;;;;;;5146860;27;20046;-50
2021/05/23 10:53:17;;;;;;;0.88;0.80;;;13.50;87.00;;;;;;5147500;27;20074;-54
2021/05/23 10:55:57;;;;;;;1.67;0.95;;;13.50;86.10;;;;;;5150006;27;20107;-53
2021/05/23 10:58:28;;;;;;;1.42;0.80;;;13.50;86.30;;;;;;5156897;27;20030;-49
2021/05/23 11:00:57;;;;;;;2.03;1.20;;;13.30;84.20;;;;;;5149465;27;20043;-50
2021/05/23 11:03:26;;;;;;;5.10;3.17;;;12.80;85.10;;;;;;5151364;27;20386;-52
2021/05/23 11:06:00;;;;;;;6.75;5.32;;;12.80;86.00;;;;;;5149518;27;20046;-50
2021/05/23 11:08:34;;;;;;;2.38;1.30;;;12.80;86.50;;;;;;5150224;27;20057;-51
2021/05/23 11:11:00;;;;;;;2.58;1.73;;;12.70;87.70;;;;;;5148173;27;20059;-55
2021/05/23 11:13:33;;;;;;;4.97;3.38;;;12.60;90.00;;;;;;5150070;27;20038;-49
2021/05/23 11:16:15;;;;;;;3.05;1.60;;;12.50;90.80;;;;;;5149132;27;20047;-53
2021/05/23 11:18:41;;;;;;;;;;;12.30;91.10;;;;;;5149883;27;20047;-52
2021/05/23 11:21:12;;;;;;;1.65;1.50;;;12.30;91.40;;;;;;5150333;27;19972;-51
2021/05/23 11:23:51;;;;;;;4.88;2.90;;;12.10;91.70;;;;;;5146631;27;20379;-52
2021/05/23 11:26:18;;;;;;;4.97;3.40;;;12.40;91.80;;;;;;5129005;27;20043;-50
2021/05/23 11:28:53;;;;;;;2.83;2.30;;;12.50;91.60;;;;;;5146302;27;20138;-52
2021/05/23 11:31:26;;;;;;;3.30;2.70;;;12.70;91.60;;;;;;5149694;27;20603;-52
2021/05/23 11:33:53;;;;;;;3.75;2.00;;;13.20;91.50;;;;;;5148977;27;20047;-53
2021/05/23 11:36:21;;;;;;;3.38;1.95;;;13.50;90.60;;;;;;5133043;27;20129;-52
2021/05/23 11:38:49;;;;;;;4.57;3.55;;;13.90;89.80;;;;;;5129119;27;20050;-49
2021/05/23 11:41:27;;;;;;;3.10;2.28;;;14.30;89.40;;;;;;5150207;27;20039;-53
2021/05/23 11:43:55;;;;;;;3.25;2.17;;;14.40;88.00;;;;;;5149321;27;20469;-53
2021/05/23 11:46:23;;;;;;;2.92;2.40;;;14.60;86.20;;;;;;5148368;27;20051;-50
2021/05/23 11:48:52;;;;;;;4.43;2.33;;;15.00;85.70;;;;;;5149097;27;20839;-52
2021/05/23 11:51:24;;;;;;;4.97;2.20;;;15.40;80.90;;;;;;5148857;27;20068;-54
2021/05/23 11:53:55;;;;;;;3.03;1.77;;;15.80;78.70;;;;;;5149293;27;20062;-54
2021/05/23 11:56:27;;;;;;;4.22;1.95;;;15.70;77.50;;;;;;5150965;27;20418;-53
2021/05/23 11:59:00;;;;;;;2.85;1.50;;;15.50;77.30;;;;;;5145344;27;20081;-54
2021/05/23 12:01:31;;;;;;;2.03;1.30;;;15.30;77.20;;;;;;5152703;27;20045;-51
2021/05/23 12:04:07;;;;;;;3.13;1.20;;;15.30;77.30;;;;;;5128923;27;20098;-53
2021/05/23 12:06:42;;;;;;;2.70;1.27;;;15.00;79.10;;;;;;5123295;27;21138;-54
2021/05/23 12:09:14;;;;;;;1.85;1.20;;;14.80;78.50;;;;;;5133598;27;20043;-51
2021/05/23 12:11:48;;;;;;;2.78;1.33;;;14.90;80.60;;;;;;5129545;27;20058;-54
2021/05/23 12:14:19;;;;;;;3.38;1.55;;;14.60;80.20;;;;;;5146525;27;20046;-55
2021/05/23 12:16:47;;;;;;;;;;;14.40;82.30;;;;;;5140587;27;20047;-54
2021/05/23 12:19:14;;;;;;;2.53;1.88;;;14.10;82.80;;;;;;5140052;27;19975;-55
2021/05/23 12:21:43;;;;;;;5.32;3.70;;;13.90;84.70;;;;;;5145900;27;20051;-53
2021/05/23 12:24:10;;;;;;;1.67;1.33;;;13.90;84.00;;;;;;5150421;27;20050;-53
2021/05/23 12:26:40;;;;;;;2.38;1.92;;;13.70;85.10;;;;;;5137447;27;20061;-50
2021/05/23 12:29:09;;;;;;;3.15;1.92;;;13.60;86.10;;;;;;5149678;27;20047;-55
2021/05/23 12:31:36;;;;;;;3.03;1.90;;;13.50;86.60;;;;;;5149342;27;20410;-54
2021/05/23 12:34:05;;;;;;;3.83;2.30;;;13.50;86.90;;;;;;5153023;27;20530;-54
2021/05/23 12:36:31;;;;;;;5.88;4.10;;;13.40;87.60;;;;;;5150516;27;20582;-54
2021/05/23 12:39:10;;;;;;;3.65;2.40;;;13.50;88.50;;;;;;5149238;27;20047;-53
2021/05/23 12:41:37;;;;;;;3.95;2.60;;;13.70;88.50;;;;;;5118916;27;20034;-52
2021/05/23 12:44:33;;;;;;;3.25;2.70;;;13.70;88.50;;;;;;5148265;27;20137;-55
2021/05/23 12:47:13;;;;;;;3.78;2.60;;;13.90;87.60;;;;;;5149127;27;20046;-53
2021/05/23 12:49:45;;;;;;;5.93;4.15;;;13.70;89.00;;;;;;5106291;27;20165;-54
2021/05/23 12:52:15;;;;;;;4.70;3.58;;;13.70;89.20;;;;;;5150730;27;20047;-53
2021/05/23 12:54:42;;;;;;;3.90;3.25;;;13.80;88.90;;;;;;5138814;27;20052;-55
2021/05/23 12:57:09;;;;;;;11.18;8.57;;;13.80;88.50;;;;;;5114247;27;20988;-52
2021/05/23 12:59:40;;;;;;;4.57;3.63;;;13.90;88.30;;;;;;5142577;27;20095;-54
2021/05/23 13:02:07;;;;;;;3.63;1.90;;;14.00;88.30;;;;;;5150682;27;20495;-54